AERODROME FORECAST
Output Produced by Aerodrome Forecast
found at http://aviationweather.gov/adds/metars/
 

Data at: 1035 UTC 07 May 2021

TAF for:WIII (Jakarta Intl, JB, ID) issued at 0500 UTC 07 May 2021
Text:TAF WIII 070500Z 0706/0812 05010KT 8000 SCT020
Forecast period:0600 to 1300 UTC 07 May 2021
Forecast type:FROM: standard forecast or significant change
Winds:from the NE (50 degrees) at 12 MPH (10 knots; 5.1 m/s)
Visibility: 5 sm ( 8 km)
Ceiling:at least 12,000 feet AGL
Clouds: scattered clouds at 2000 feet AGL
Text:TEMPO 0707/0711 5000 -TSRA FEW018CB
Forecast period:0700 to 1100 UTC 07 May 2021
Forecast type:TEMPORARY: The following changes expected for less than half the time period
Visibility: 3 sm ( 5 km)
Ceiling:at least 12,000 feet AGL
Clouds: few clouds at 1800 feet AGL
Weather:-TSRA (light rain associated with thunderstorm(s))
Text:BECMG 0713/0715 20005KT 5000 HZ
Forecast period:1300 UTC 07 May 2021 to 1200 UTC 08 May 2021
Forecast type:BECOMING: Conditions expected to become as follows by 1500 UTC 07 May 2021
Winds:from the SSW (200 degrees) at 6 MPH (5 knots; 2.6 m/s)
Visibility: 3 sm ( 5 km)
Ceiling:at least 12,000 feet AGL
Clouds: scattered clouds at 2000 feet AGL
Weather:HZ (haze)